sensor_id;sensor_type;location;lat;lon;timestamp;temperature;humidity
50989;DHT22;37008;52.210;21.112;2024-03-06T00:00:01;5.70;99.90
50989;DHT22;37008;52.210;21.112;2024-03-06T00:02:26;5.70;99.90
50989;DHT22;37008;52.210;21.112;2024-03-06T00:04:52;5.70;99.90
50989;DHT22;37008;52.210;21.112;2024-03-06T00:07:19;5.70;99.90
50989;DHT22;37008;52.210;21.112;2024-03-06T00:09:44;5.70;99.90
50989;DHT22;37008;52.210;21.112;2024-03-06T00:12:10;5.80;99.90
50989;DHT22;37008;52.210;21.112;2024-03-06T00:14:35;5.80;99.90
50989;DHT22;37008;52.210;21.112;2024-03-06T00:17:02;5.80;99.90
50989;DHT22;37008;52.210;21.112;2024-03-06T00:19:30;5.80;99.90
50989;DHT22;37008;52.210;21.112;2024-03-06T00:21:56;5.80;99.90
50989;DHT22;37008;52.210;21.112;2024-03-06T00:24:21;5.80;99.90
50989;DHT22;37008;52.210;21.112;2024-03-06T00:26:48;5.80;99.90
50989;DHT22;37008;52.210;21.112;2024-03-06T00:29:14;5.80;99.90
50989;DHT22;37008;52.210;21.112;2024-03-06T00:31:43;5.80;99.90
50989;DHT22;37008;52.210;21.112;2024-03-06T00:34:10;5.90;99.90
50989;DHT22;37008;52.210;21.112;2024-03-06T00:36:37;5.90;99.90
50989;DHT22;37008;52.210;21.112;2024-03-06T00:39:03;5.90;99.90
50989;DHT22;37008;52.210;21.112;2024-03-06T00:41:30;5.90;99.90
50989;DHT22;37008;52.210;21.112;2024-03-06T00:43:56;5.90;99.90
50989;DHT22;37008;52.210;21.112;2024-03-06T00:46:22;5.90;99.90
50989;DHT22;37008;52.210;21.112;2024-03-06T00:48:47;5.90;99.90
50989;DHT22;37008;52.210;21.112;2024-03-06T00:51:13;5.90;99.90
50989;DHT22;37008;52.210;21.112;2024-03-06T00:53:38;5.90;99.90
50989;DHT22;37008;52.210;21.112;2024-03-06T00:56:04;6.00;99.90
50989;DHT22;37008;52.210;21.112;2024-03-06T00:58:30;5.90;99.90
50989;DHT22;37008;52.210;21.112;2024-03-06T01:00:56;6.00;99.90
50989;DHT22;37008;52.210;21.112;2024-03-06T01:03:23;5.90;99.90
50989;DHT22;37008;52.210;21.112;2024-03-06T01:05:49;5.90;99.90
50989;DHT22;37008;52.210;21.112;2024-03-06T01:08:14;6.00;99.90
50989;DHT22;37008;52.210;21.112;2024-03-06T01:10:43;6.00;99.90
50989;DHT22;37008;52.210;21.112;2024-03-06T01:13:09;6.00;99.90
50989;DHT22;37008;52.210;21.112;2024-03-06T01:15:37;6.00;99.90
50989;DHT22;37008;52.210;21.112;2024-03-06T01:18:03;6.00;99.90
50989;DHT22;37008;52.210;21.112;2024-03-06T01:20:29;6.00;99.90
50989;DHT22;37008;52.210;21.112;2024-03-06T01:22:54;6.00;99.90
50989;DHT22;37008;52.210;21.112;2024-03-06T01:25:20;6.00;99.90
50989;DHT22;37008;52.210;21.112;2024-03-06T01:27:48;6.00;99.90
50989;DHT22;37008;52.210;21.112;2024-03-06T01:30:14;6.10;99.90
50989;DHT22;37008;52.210;21.112;2024-03-06T01:32:39;6.10;99.90
50989;DHT22;37008;52.210;21.112;2024-03-06T01:35:06;6.10;99.90
50989;DHT22;37008;52.210;21.112;2024-03-06T01:37:32;6.10;99.90
50989;DHT22;37008;52.210;21.112;2024-03-06T01:39:57;6.10;99.90
50989;DHT22;37008;52.210;21.112;2024-03-06T01:42:23;6.10;99.90
50989;DHT22;37008;52.210;21.112;2024-03-06T01:44:49;6.10;99.90
50989;DHT22;37008;52.210;21.112;2024-03-06T01:47:15;6.10;99.90
50989;DHT22;37008;52.210;21.112;2024-03-06T01:49:41;6.10;99.90
50989;DHT22;37008;52.210;21.112;2024-03-06T01:52:09;6.10;99.90
50989;DHT22;37008;52.210;21.112;2024-03-06T01:54:37;6.10;99.90
50989;DHT22;37008;52.210;21.112;2024-03-06T01:57:03;6.00;99.90
50989;DHT22;37008;52.210;21.112;2024-03-06T01:59:30;6.10;99.90
50989;DHT22;37008;52.210;21.112;2024-03-06T02:01:55;6.10;99.90
50989;DHT22;37008;52.210;21.112;2024-03-06T02:04:22;6.10;99.90
50989;DHT22;37008;52.210;21.112;2024-03-06T02:06:49;6.10;99.90
50989;DHT22;37008;52.210;21.112;2024-03-06T02:09:15;6.10;99.90
50989;DHT22;37008;52.210;21.112;2024-03-06T02:11:40;6.10;99.90
50989;DHT22;37008;52.210;21.112;2024-03-06T02:14:07;6.10;99.90
50989;DHT22;37008;52.210;21.112;2024-03-06T02:16:36;6.10;99.90
50989;DHT22;37008;52.210;21.112;2024-03-06T02:19:01;6.10;99.90
50989;DHT22;37008;52.210;21.112;2024-03-06T02:21:27;6.10;99.90
50989;DHT22;37008;52.210;21.112;2024-03-06T02:23:53;6.10;99.90
50989;DHT22;37008;52.210;21.112;2024-03-06T02:26:20;6.10;99.90
50989;DHT22;37008;52.210;21.112;2024-03-06T02:28:53;6.10;99.90
50989;DHT22;37008;52.210;21.112;2024-03-06T02:31:20;6.10;99.90
50989;DHT22;37008;52.210;21.112;2024-03-06T02:33:47;6.10;99.90
50989;DHT22;37008;52.210;21.112;2024-03-06T02:36:14;6.10;99.90
50989;DHT22;37008;52.210;21.112;2024-03-06T02:38:39;6.00;99.90
50989;DHT22;37008;52.210;21.112;2024-03-06T02:41:05;6.10;99.90
50989;DHT22;37008;52.210;21.112;2024-03-06T02:43:32;6.10;99.90
50989;DHT22;37008;52.210;21.112;2024-03-06T02:45:58;6.00;99.90
50989;DHT22;37008;52.210;21.112;2024-03-06T02:48:24;6.00;99.90
50989;DHT22;37008;52.210;21.112;2024-03-06T02:50:49;6.00;99.90
50989;DHT22;37008;52.210;21.112;2024-03-06T02:53:15;6.00;99.90
50989;DHT22;37008;52.210;21.112;2024-03-06T02:55:41;6.00;99.90
50989;DHT22;37008;52.210;21.112;2024-03-06T02:58:06;6.00;99.90
50989;DHT22;37008;52.210;21.112;2024-03-06T03:00:32;6.00;99.90
50989;DHT22;37008;52.210;21.112;2024-03-06T03:02:58;6.00;99.90
50989;DHT22;37008;52.210;21.112;2024-03-06T03:05:24;6.00;99.90
50989;DHT22;37008;52.210;21.112;2024-03-06T03:07:50;6.00;99.90
50989;DHT22;37008;52.210;21.112;2024-03-06T03:10:17;6.00;99.90
50989;DHT22;37008;52.210;21.112;2024-03-06T03:12:43;5.90;99.90
50989;DHT22;37008;52.210;21.112;2024-03-06T03:15:09;5.90;99.90
50989;DHT22;37008;52.210;21.112;2024-03-06T03:17:35;5.90;99.90
50989;DHT22;37008;52.210;21.112;2024-03-06T03:20:04;5.90;99.90
50989;DHT22;37008;52.210;21.112;2024-03-06T03:22:37;5.90;99.90
50989;DHT22;37008;52.210;21.112;2024-03-06T03:25:06;5.90;99.90
50989;DHT22;37008;52.210;21.112;2024-03-06T03:27:33;5.90;99.90
50989;DHT22;37008;52.210;21.112;2024-03-06T03:29:58;5.90;99.90
50989;DHT22;37008;52.210;21.112;2024-03-06T03:32:25;5.90;99.90
50989;DHT22;37008;52.210;21.112;2024-03-06T03:34:50;5.90;99.90
50989;DHT22;37008;52.210;21.112;2024-03-06T03:37:16;5.90;99.90
50989;DHT22;37008;52.210;21.112;2024-03-06T03:39:44;5.90;99.90
50989;DHT22;37008;52.210;21.112;2024-03-06T03:42:10;5.90;99.90
50989;DHT22;37008;52.210;21.112;2024-03-06T03:44:35;5.80;99.90
50989;DHT22;37008;52.210;21.112;2024-03-06T03:47:01;5.80;99.90
50989;DHT22;37008;52.210;21.112;2024-03-06T03:49:27;5.80;99.90
50989;DHT22;37008;52.210;21.112;2024-03-06T03:51:53;5.80;99.90
50989;DHT22;37008;52.210;21.112;2024-03-06T03:54:18;5.80;99.90
50989;DHT22;37008;52.210;21.112;2024-03-06T03:56:44;5.80;99.90
50989;DHT22;37008;52.210;21.112;2024-03-06T03:59:09;5.80;99.90
50989;DHT22;37008;52.210;21.112;2024-03-06T04:01:35;5.80;99.90
50989;DHT22;37008;52.210;21.112;2024-03-06T04:04:01;5.70;99.90
50989;DHT22;37008;52.210;21.112;2024-03-06T04:06:26;5.70;99.90
50989;DHT22;37008;52.210;21.112;2024-03-06T04:08:52;5.70;99.90
50989;DHT22;37008;52.210;21.112;2024-03-06T04:11:18;5.70;99.90
50989;DHT22;37008;52.210;21.112;2024-03-06T04:13:43;5.70;99.90
50989;DHT22;37008;52.210;21.112;2024-03-06T04:16:09;5.70;99.90
50989;DHT22;37008;52.210;21.112;2024-03-06T04:18:35;5.60;99.90
50989;DHT22;37008;52.210;21.112;2024-03-06T04:21:07;5.60;99.90
50989;DHT22;37008;52.210;21.112;2024-03-06T04:23:33;5.60;99.90
50989;DHT22;37008;52.210;21.112;2024-03-06T04:25:59;5.60;99.90
50989;DHT22;37008;52.210;21.112;2024-03-06T04:28:25;5.60;99.90
50989;DHT22;37008;52.210;21.112;2024-03-06T04:30:51;5.60;99.90
50989;DHT22;37008;52.210;21.112;2024-03-06T04:33:16;5.50;99.90
50989;DHT22;37008;52.210;21.112;2024-03-06T04:35:42;5.60;99.90
50989;DHT22;37008;52.210;21.112;2024-03-06T04:38:08;5.50;99.90
50989;DHT22;37008;52.210;21.112;2024-03-06T04:40:34;5.50;99.90
50989;DHT22;37008;52.210;21.112;2024-03-06T04:43:00;5.50;99.90
50989;DHT22;37008;52.210;21.112;2024-03-06T04:45:26;5.50;99.90
50989;DHT22;37008;52.210;21.112;2024-03-06T04:47:53;5.50;99.90
50989;DHT22;37008;52.210;21.112;2024-03-06T04:50:19;5.50;99.90
50989;DHT22;37008;52.210;21.112;2024-03-06T04:52:44;5.50;99.90
50989;DHT22;37008;52.210;21.112;2024-03-06T04:55:11;5.50;99.90
50989;DHT22;37008;52.210;21.112;2024-03-06T04:57:38;5.50;99.90
50989;DHT22;37008;52.210;21.112;2024-03-06T05:00:04;5.50;99.90
50989;DHT22;37008;52.210;21.112;2024-03-06T05:02:34;5.50;99.90
50989;DHT22;37008;52.210;21.112;2024-03-06T05:05:01;5.50;99.90
50989;DHT22;37008;52.210;21.112;2024-03-06T05:07:31;5.50;99.90
50989;DHT22;37008;52.210;21.112;2024-03-06T05:09:58;5.50;99.90
50989;DHT22;37008;52.210;21.112;2024-03-06T05:12:27;5.50;99.90
50989;DHT22;37008;52.210;21.112;2024-03-06T05:14:53;5.40;99.90
50989;DHT22;37008;52.210;21.112;2024-03-06T05:17:19;5.40;99.90
50989;DHT22;37008;52.210;21.112;2024-03-06T05:19:48;5.40;99.90
50989;DHT22;37008;52.210;21.112;2024-03-06T05:22:15;5.40;99.90
50989;DHT22;37008;52.210;21.112;2024-03-06T05:24:44;5.30;99.90
50989;DHT22;37008;52.210;21.112;2024-03-06T05:27:09;5.40;99.90
50989;DHT22;37008;52.210;21.112;2024-03-06T05:29:38;5.40;99.90
50989;DHT22;37008;52.210;21.112;2024-03-06T05:32:05;5.30;99.90
50989;DHT22;37008;52.210;21.112;2024-03-06T05:34:32;5.30;99.90
50989;DHT22;37008;52.210;21.112;2024-03-06T05:36:59;5.30;99.90
50989;DHT22;37008;52.210;21.112;2024-03-06T05:39:25;5.30;99.90
50989;DHT22;37008;52.210;21.112;2024-03-06T05:41:50;5.30;99.90
50989;DHT22;37008;52.210;21.112;2024-03-06T05:44:16;5.30;99.90
50989;DHT22;37008;52.210;21.112;2024-03-06T05:46:42;5.30;99.90
50989;DHT22;37008;52.210;21.112;2024-03-06T05:49:07;5.30;99.90
50989;DHT22;37008;52.210;21.112;2024-03-06T05:51:33;5.30;99.90
50989;DHT22;37008;52.210;21.112;2024-03-06T05:53:59;5.30;99.90
50989;DHT22;37008;52.210;21.112;2024-03-06T05:56:24;5.30;99.90
50989;DHT22;37008;52.210;21.112;2024-03-06T05:58:50;5.30;99.90
50989;DHT22;37008;52.210;21.112;2024-03-06T06:01:16;5.30;99.90
50989;DHT22;37008;52.210;21.112;2024-03-06T06:03:46;5.30;99.90
50989;DHT22;37008;52.210;21.112;2024-03-06T06:06:15;5.30;99.90
50989;DHT22;37008;52.210;21.112;2024-03-06T06:08:40;5.30;99.90
50989;DHT22;37008;52.210;21.112;2024-03-06T06:11:06;5.30;99.90
50989;DHT22;37008;52.210;21.112;2024-03-06T06:13:33;5.20;99.90
50989;DHT22;37008;52.210;21.112;2024-03-06T06:15:59;5.30;99.90
50989;DHT22;37008;52.210;21.112;2024-03-06T06:18:24;5.30;99.90
50989;DHT22;37008;52.210;21.112;2024-03-06T06:20:50;5.30;99.90
50989;DHT22;37008;52.210;21.112;2024-03-06T06:23:16;5.30;99.90
50989;DHT22;37008;52.210;21.112;2024-03-06T06:25:42;5.40;99.90
50989;DHT22;37008;52.210;21.112;2024-03-06T06:28:07;5.40;99.90
50989;DHT22;37008;52.210;21.112;2024-03-06T06:30:36;5.40;99.90
50989;DHT22;37008;52.210;21.112;2024-03-06T06:33:01;5.40;99.90
50989;DHT22;37008;52.210;21.112;2024-03-06T06:35:27;5.40;99.90
50989;DHT22;37008;52.210;21.112;2024-03-06T06:37:53;5.40;99.90
50989;DHT22;37008;52.210;21.112;2024-03-06T06:40:18;5.40;99.90
50989;DHT22;37008;52.210;21.112;2024-03-06T06:42:45;5.40;99.90
50989;DHT22;37008;52.210;21.112;2024-03-06T06:45:15;5.40;99.90
50989;DHT22;37008;52.210;21.112;2024-03-06T06:47:41;5.40;99.90
50989;DHT22;37008;52.210;21.112;2024-03-06T06:50:07;5.50;99.90
50989;DHT22;37008;52.210;21.112;2024-03-06T06:52:34;5.50;99.90
50989;DHT22;37008;52.210;21.112;2024-03-06T06:55:00;5.50;99.90
50989;DHT22;37008;52.210;21.112;2024-03-06T06:57:26;5.50;99.90
50989;DHT22;37008;52.210;21.112;2024-03-06T06:59:52;5.50;99.90
50989;DHT22;37008;52.210;21.112;2024-03-06T07:02:18;5.50;99.90
50989;DHT22;37008;52.210;21.112;2024-03-06T07:04:44;5.60;99.90
50989;DHT22;37008;52.210;21.112;2024-03-06T07:07:09;5.60;99.90
50989;DHT22;37008;52.210;21.112;2024-03-06T07:09:35;5.50;99.90
50989;DHT22;37008;52.210;21.112;2024-03-06T07:12:01;5.60;99.90
50989;DHT22;37008;52.210;21.112;2024-03-06T07:14:28;5.60;99.90
50989;DHT22;37008;52.210;21.112;2024-03-06T07:16:54;5.60;99.90
50989;DHT22;37008;52.210;21.112;2024-03-06T07:19:19;5.60;99.90
50989;DHT22;37008;52.210;21.112;2024-03-06T07:21:45;5.60;99.90
50989;DHT22;37008;52.210;21.112;2024-03-06T07:24:11;5.60;99.90
50989;DHT22;37008;52.210;21.112;2024-03-06T07:26:36;5.60;99.90
50989;DHT22;37008;52.210;21.112;2024-03-06T07:29:02;5.60;99.90
50989;DHT22;37008;52.210;21.112;2024-03-06T07:31:28;5.60;99.90
50989;DHT22;37008;52.210;21.112;2024-03-06T07:33:54;5.60;99.90
50989;DHT22;37008;52.210;21.112;2024-03-06T07:36:20;5.70;99.90
50989;DHT22;37008;52.210;21.112;2024-03-06T07:38:46;5.70;99.90
50989;DHT22;37008;52.210;21.112;2024-03-06T07:41:12;5.70;99.90
50989;DHT22;37008;52.210;21.112;2024-03-06T07:43:37;5.80;99.90
50989;DHT22;37008;52.210;21.112;2024-03-06T07:46:04;5.80;99.90
50989;DHT22;37008;52.210;21.112;2024-03-06T07:48:41;5.80;99.90
50989;DHT22;37008;52.210;21.112;2024-03-06T07:51:07;5.90;99.90
50989;DHT22;37008;52.210;21.112;2024-03-06T07:53:33;5.80;99.90
50989;DHT22;37008;52.210;21.112;2024-03-06T07:55:59;5.80;99.90
50989;DHT22;37008;52.210;21.112;2024-03-06T07:58:24;5.80;99.90
50989;DHT22;37008;52.210;21.112;2024-03-06T08:00:50;5.70;99.90
50989;DHT22;37008;52.210;21.112;2024-03-06T08:03:18;5.70;99.90
50989;DHT22;37008;52.210;21.112;2024-03-06T08:05:43;5.60;99.90
50989;DHT22;37008;52.210;21.112;2024-03-06T08:08:09;5.60;99.90
50989;DHT22;37008;52.210;21.112;2024-03-06T08:10:35;5.50;99.90
50989;DHT22;37008;52.210;21.112;2024-03-06T08:13:00;5.50;99.90
50989;DHT22;37008;52.210;21.112;2024-03-06T08:15:26;5.40;99.90
50989;DHT22;37008;52.210;21.112;2024-03-06T08:17:51;5.40;99.90
50989;DHT22;37008;52.210;21.112;2024-03-06T08:20:18;5.40;99.90
50989;DHT22;37008;52.210;21.112;2024-03-06T08:22:43;5.30;99.90
50989;DHT22;37008;52.210;21.112;2024-03-06T08:25:11;5.30;99.90
50989;DHT22;37008;52.210;21.112;2024-03-06T08:27:41;5.30;99.90
50989;DHT22;37008;52.210;21.112;2024-03-06T08:30:07;5.40;99.90
50989;DHT22;37008;52.210;21.112;2024-03-06T08:32:36;5.40;99.90
50989;DHT22;37008;52.210;21.112;2024-03-06T08:35:04;5.40;99.90
50989;DHT22;37008;52.210;21.112;2024-03-06T08:37:33;5.40;99.90
50989;DHT22;37008;52.210;21.112;2024-03-06T08:40:00;5.40;99.90
50989;DHT22;37008;52.210;21.112;2024-03-06T08:42:26;5.40;99.90
50989;DHT22;37008;52.210;21.112;2024-03-06T08:44:52;5.50;99.90
50989;DHT22;37008;52.210;21.112;2024-03-06T08:47:18;5.50;99.90
50989;DHT22;37008;52.210;21.112;2024-03-06T08:49:43;5.60;99.90
50989;DHT22;37008;52.210;21.112;2024-03-06T08:52:09;5.70;99.90
50989;DHT22;37008;52.210;21.112;2024-03-06T08:54:38;5.60;99.90
50989;DHT22;37008;52.210;21.112;2024-03-06T08:57:04;5.80;99.90
50989;DHT22;37008;52.210;21.112;2024-03-06T08:59:30;5.80;99.90
50989;DHT22;37008;52.210;21.112;2024-03-06T09:01:55;5.90;99.90
50989;DHT22;37008;52.210;21.112;2024-03-06T09:04:22;5.90;99.90
50989;DHT22;37008;52.210;21.112;2024-03-06T09:06:48;5.90;99.90
50989;DHT22;37008;52.210;21.112;2024-03-06T09:09:16;6.00;99.90
50989;DHT22;37008;52.210;21.112;2024-03-06T09:11:42;6.00;99.90
50989;DHT22;37008;52.210;21.112;2024-03-06T09:14:08;6.00;99.90
50989;DHT22;37008;52.210;21.112;2024-03-06T09:16:35;6.00;99.90
50989;DHT22;37008;52.210;21.112;2024-03-06T09:19:00;6.10;99.90
50989;DHT22;37008;52.210;21.112;2024-03-06T09:21:26;6.10;99.90
50989;DHT22;37008;52.210;21.112;2024-03-06T09:23:53;6.10;99.90
50989;DHT22;37008;52.210;21.112;2024-03-06T09:26:19;6.10;99.90
50989;DHT22;37008;52.210;21.112;2024-03-06T09:28:46;6.00;99.90
50989;DHT22;37008;52.210;21.112;2024-03-06T09:31:11;5.90;99.90
50989;DHT22;37008;52.210;21.112;2024-03-06T09:33:39;5.90;99.90
50989;DHT22;37008;52.210;21.112;2024-03-06T09:36:05;5.80;99.90
50989;DHT22;37008;52.210;21.112;2024-03-06T09:38:31;5.80;99.90
50989;DHT22;37008;52.210;21.112;2024-03-06T09:40:57;5.80;99.90
50989;DHT22;37008;52.210;21.112;2024-03-06T09:43:22;5.90;99.90
50989;DHT22;37008;52.210;21.112;2024-03-06T09:45:50;5.90;99.90
50989;DHT22;37008;52.210;21.112;2024-03-06T09:48:18;5.90;99.90
50989;DHT22;37008;52.210;21.112;2024-03-06T09:50:46;5.90;99.90
50989;DHT22;37008;52.210;21.112;2024-03-06T09:53:16;5.90;99.90
50989;DHT22;37008;52.210;21.112;2024-03-06T09:55:42;5.80;99.90
50989;DHT22;37008;52.210;21.112;2024-03-06T09:58:08;5.60;99.90
50989;DHT22;37008;52.210;21.112;2024-03-06T10:00:37;5.60;99.90
50989;DHT22;37008;52.210;21.112;2024-03-06T10:03:03;5.60;99.90
50989;DHT22;37008;52.210;21.112;2024-03-06T10:05:34;5.60;99.90
50989;DHT22;37008;52.210;21.112;2024-03-06T10:08:04;5.60;99.90
50989;DHT22;37008;52.210;21.112;2024-03-06T10:10:30;5.60;99.90
50989;DHT22;37008;52.210;21.112;2024-03-06T10:12:56;5.70;99.90
50989;DHT22;37008;52.210;21.112;2024-03-06T10:15:23;5.70;99.90
50989;DHT22;37008;52.210;21.112;2024-03-06T10:17:48;5.80;99.90
50989;DHT22;37008;52.210;21.112;2024-03-06T10:20:22;5.80;99.90
50989;DHT22;37008;52.210;21.112;2024-03-06T10:22:52;5.80;99.90
50989;DHT22;37008;52.210;21.112;2024-03-06T10:25:22;5.80;99.90
50989;DHT22;37008;52.210;21.112;2024-03-06T10:30:34;5.80;99.90
50989;DHT22;37008;52.210;21.112;2024-03-06T10:33:02;5.90;99.90
50989;DHT22;37008;52.210;21.112;2024-03-06T10:35:28;5.90;99.90
50989;DHT22;37008;52.210;21.112;2024-03-06T10:37:54;5.90;99.90
50989;DHT22;37008;52.210;21.112;2024-03-06T10:40:22;5.90;99.90
50989;DHT22;37008;52.210;21.112;2024-03-06T10:42:48;5.80;99.90
50989;DHT22;37008;52.210;21.112;2024-03-06T10:45:15;5.80;99.90
50989;DHT22;37008;52.210;21.112;2024-03-06T10:47:46;5.70;99.90
50989;DHT22;37008;52.210;21.112;2024-03-06T10:50:14;5.80;99.90
50989;DHT22;37008;52.210;21.112;2024-03-06T10:52:40;5.80;99.90
50989;DHT22;37008;52.210;21.112;2024-03-06T10:55:08;5.90;99.90
50989;DHT22;37008;52.210;21.112;2024-03-06T10:57:36;6.00;99.90
50989;DHT22;37008;52.210;21.112;2024-03-06T11:00:02;6.00;99.90
50989;DHT22;37008;52.210;21.112;2024-03-06T11:02:28;6.00;99.90
50989;DHT22;37008;52.210;21.112;2024-03-06T11:04:54;6.10;99.90
50989;DHT22;37008;52.210;21.112;2024-03-06T11:07:20;6.10;99.90
50989;DHT22;37008;52.210;21.112;2024-03-06T11:09:46;6.00;99.90
50989;DHT22;37008;52.210;21.112;2024-03-06T11:12:35;6.00;99.90
50989;DHT22;37008;52.210;21.112;2024-03-06T11:15:14;6.10;99.90
50989;DHT22;37008;52.210;21.112;2024-03-06T11:17:39;6.10;99.90
50989;DHT22;37008;52.210;21.112;2024-03-06T11:31:06;6.50;99.90
50989;DHT22;37008;52.210;21.112;2024-03-06T11:33:39;6.60;99.90
50989;DHT22;37008;52.210;21.112;2024-03-06T11:36:22;6.60;99.90
50989;DHT22;37008;52.210;21.112;2024-03-06T11:39:02;6.60;99.90
50989;DHT22;37008;52.210;21.112;2024-03-06T11:41:47;6.70;99.90
50989;DHT22;37008;52.210;21.112;2024-03-06T11:44:21;6.80;99.90
50989;DHT22;37008;52.210;21.112;2024-03-06T11:46:58;6.90;99.90
50989;DHT22;37008;52.210;21.112;2024-03-06T11:49:27;7.10;99.90
50989;DHT22;37008;52.210;21.112;2024-03-06T11:51:59;7.20;99.90
50989;DHT22;37008;52.210;21.112;2024-03-06T11:54:25;7.30;99.90
50989;DHT22;37008;52.210;21.112;2024-03-06T11:56:54;7.30;99.90
50989;DHT22;37008;52.210;21.112;2024-03-06T11:59:34;7.30;99.90
50989;DHT22;37008;52.210;21.112;2024-03-06T12:02:02;7.40;99.90
50989;DHT22;37008;52.210;21.112;2024-03-06T12:04:34;7.40;99.90
50989;DHT22;37008;52.210;21.112;2024-03-06T12:07:02;7.50;99.50
50989;DHT22;37008;52.210;21.112;2024-03-06T12:09:35;7.50;99.60
50989;DHT22;37008;52.210;21.112;2024-03-06T12:12:01;7.60;99.90
50989;DHT22;37008;52.210;21.112;2024-03-06T12:14:27;7.70;98.50
50989;DHT22;37008;52.210;21.112;2024-03-06T12:16:57;7.80;97.00
50989;DHT22;37008;52.210;21.112;2024-03-06T12:19:25;7.80;95.60
50989;DHT22;37008;52.210;21.112;2024-03-06T12:21:51;7.90;95.10
50989;DHT22;37008;52.210;21.112;2024-03-06T12:24:17;7.90;93.50
50989;DHT22;37008;52.210;21.112;2024-03-06T12:26:46;7.90;93.20
50989;DHT22;37008;52.210;21.112;2024-03-06T12:29:18;8.00;93.00
50989;DHT22;37008;52.210;21.112;2024-03-06T12:31:46;8.10;92.10
50989;DHT22;37008;52.210;21.112;2024-03-06T12:34:15;8.20;92.70
50989;DHT22;37008;52.210;21.112;2024-03-06T12:36:44;8.30;91.90
50989;DHT22;37008;52.210;21.112;2024-03-06T12:39:15;8.40;91.70
50989;DHT22;37008;52.210;21.112;2024-03-06T12:41:44;8.40;90.10
50989;DHT22;37008;52.210;21.112;2024-03-06T12:44:10;8.20;87.90
50989;DHT22;37008;52.210;21.112;2024-03-06T12:46:36;8.10;86.70
50989;DHT22;37008;52.210;21.112;2024-03-06T12:49:02;8.00;85.10
50989;DHT22;37008;52.210;21.112;2024-03-06T12:51:27;7.80;84.90
50989;DHT22;37008;52.210;21.112;2024-03-06T12:53:53;7.70;85.40
50989;DHT22;37008;52.210;21.112;2024-03-06T12:56:19;7.60;84.80
50989;DHT22;37008;52.210;21.112;2024-03-06T12:58:45;7.60;85.20
50989;DHT22;37008;52.210;21.112;2024-03-06T13:01:11;7.60;86.40
50989;DHT22;37008;52.210;21.112;2024-03-06T13:03:37;7.60;86.20
50989;DHT22;37008;52.210;21.112;2024-03-06T13:06:03;7.50;85.90
50989;DHT22;37008;52.210;21.112;2024-03-06T13:08:33;7.40;86.70
50989;DHT22;37008;52.210;21.112;2024-03-06T13:10:58;7.40;88.10
50989;DHT22;37008;52.210;21.112;2024-03-06T13:13:25;7.40;87.50
50989;DHT22;37008;52.210;21.112;2024-03-06T13:15:51;7.30;87.20
50989;DHT22;37008;52.210;21.112;2024-03-06T13:18:18;7.20;87.90
50989;DHT22;37008;52.210;21.112;2024-03-06T13:20:44;7.10;87.40
50989;DHT22;37008;52.210;21.112;2024-03-06T13:23:10;7.10;87.30
50989;DHT22;37008;52.210;21.112;2024-03-06T13:25:36;7.00;86.20
50989;DHT22;37008;52.210;21.112;2024-03-06T13:28:02;6.90;85.50
50989;DHT22;37008;52.210;21.112;2024-03-06T13:30:28;6.90;85.70
50989;DHT22;37008;52.210;21.112;2024-03-06T13:32:54;6.90;85.30
50989;DHT22;37008;52.210;21.112;2024-03-06T13:35:20;6.90;85.40
50989;DHT22;37008;52.210;21.112;2024-03-06T13:37:46;6.90;85.30
50989;DHT22;37008;52.210;21.112;2024-03-06T13:40:12;6.80;84.80
50989;DHT22;37008;52.210;21.112;2024-03-06T13:42:41;6.90;85.40
50989;DHT22;37008;52.210;21.112;2024-03-06T13:45:08;6.90;84.60
50989;DHT22;37008;52.210;21.112;2024-03-06T13:47:43;6.90;84.30
50989;DHT22;37008;52.210;21.112;2024-03-06T13:50:11;6.80;83.50
50989;DHT22;37008;52.210;21.112;2024-03-06T13:52:38;6.80;83.40
50989;DHT22;37008;52.210;21.112;2024-03-06T13:55:04;6.70;83.50
50989;DHT22;37008;52.210;21.112;2024-03-06T13:57:32;6.70;83.90
50989;DHT22;37008;52.210;21.112;2024-03-06T14:00:07;6.60;84.40
50989;DHT22;37008;52.210;21.112;2024-03-06T14:02:43;6.60;85.30
50989;DHT22;37008;52.210;21.112;2024-03-06T14:05:11;6.60;85.50
50989;DHT22;37008;52.210;21.112;2024-03-06T14:07:38;6.60;86.00
50989;DHT22;37008;52.210;21.112;2024-03-06T14:10:05;6.60;86.80
50989;DHT22;37008;52.210;21.112;2024-03-06T14:12:31;6.70;87.00
50989;DHT22;37008;52.210;21.112;2024-03-06T14:14:56;6.60;86.60
50989;DHT22;37008;52.210;21.112;2024-03-06T14:17:22;6.70;86.80
50989;DHT22;37008;52.210;21.112;2024-03-06T14:19:48;6.70;86.50
50989;DHT22;37008;52.210;21.112;2024-03-06T14:22:13;6.70;86.60
50989;DHT22;37008;52.210;21.112;2024-03-06T14:24:39;6.70;85.90
50989;DHT22;37008;52.210;21.112;2024-03-06T14:27:05;6.80;85.70
50989;DHT22;37008;52.210;21.112;2024-03-06T14:29:31;6.70;85.50
50989;DHT22;37008;52.210;21.112;2024-03-06T14:31:57;6.70;86.70
50989;DHT22;37008;52.210;21.112;2024-03-06T14:34:23;6.60;86.40
50989;DHT22;37008;52.210;21.112;2024-03-06T14:36:52;6.50;87.10
50989;DHT22;37008;52.210;21.112;2024-03-06T14:39:18;6.40;88.30
50989;DHT22;37008;52.210;21.112;2024-03-06T14:41:44;6.20;89.40
50989;DHT22;37008;52.210;21.112;2024-03-06T14:44:12;6.10;90.60
50989;DHT22;37008;52.210;21.112;2024-03-06T14:46:42;6.00;90.80
50989;DHT22;37008;52.210;21.112;2024-03-06T14:49:09;5.90;91.20
50989;DHT22;37008;52.210;21.112;2024-03-06T14:51:35;5.90;91.90
50989;DHT22;37008;52.210;21.112;2024-03-06T14:54:01;5.90;92.80
50989;DHT22;37008;52.210;21.112;2024-03-06T14:56:27;5.80;93.40
50989;DHT22;37008;52.210;21.112;2024-03-06T14:58:53;5.80;93.50
50989;DHT22;37008;52.210;21.112;2024-03-06T15:01:19;5.70;93.70
50989;DHT22;37008;52.210;21.112;2024-03-06T15:03:44;5.70;94.00
50989;DHT22;37008;52.210;21.112;2024-03-06T15:06:11;5.70;94.40
50989;DHT22;37008;52.210;21.112;2024-03-06T15:08:37;5.70;94.50
50989;DHT22;37008;52.210;21.112;2024-03-06T15:11:02;5.70;94.50
50989;DHT22;37008;52.210;21.112;2024-03-06T15:13:28;5.60;94.60
50989;DHT22;37008;52.210;21.112;2024-03-06T15:15:54;5.60;94.70
50989;DHT22;37008;52.210;21.112;2024-03-06T15:18:20;5.60;95.00
50989;DHT22;37008;52.210;21.112;2024-03-06T15:20:45;5.60;95.00
50989;DHT22;37008;52.210;21.112;2024-03-06T15:23:12;5.60;95.50
50989;DHT22;37008;52.210;21.112;2024-03-06T15:25:37;5.60;95.30
50989;DHT22;37008;52.210;21.112;2024-03-06T15:28:03;5.70;95.40
50989;DHT22;37008;52.210;21.112;2024-03-06T15:30:29;5.70;95.20
50989;DHT22;37008;52.210;21.112;2024-03-06T15:32:57;5.70;95.20
50989;DHT22;37008;52.210;21.112;2024-03-06T15:35:22;5.70;95.70
50989;DHT22;37008;52.210;21.112;2024-03-06T15:37:49;5.80;96.00
50989;DHT22;37008;52.210;21.112;2024-03-06T15:40:14;5.90;95.20